createdAt,value
2022-07-27T00:00:37.569Z,15.40
2022-07-27T00:04:20.095Z,15.30
2022-07-27T00:08:02.604Z,15.20
2022-07-27T00:11:44.522Z,15.20
2022-07-27T00:15:26.559Z,15.10
2022-07-27T00:19:09.150Z,15.10
2022-07-27T00:22:51.284Z,15.00
2022-07-27T00:26:33.128Z,15.00
2022-07-27T00:30:15.042Z,14.90
2022-07-27T00:33:56.833Z,14.90
2022-07-27T00:37:40.173Z,14.80
2022-07-27T00:41:22.101Z,14.80
2022-07-27T00:45:05.294Z,14.70
2022-07-27T00:48:47.331Z,14.60
2022-07-27T00:52:30.030Z,14.60
2022-07-27T00:56:12.194Z,14.50
2022-07-27T00:59:54.269Z,14.50
2022-07-27T01:03:36.457Z,14.30
2022-07-27T01:07:22.609Z,14.30
2022-07-27T01:11:06.816Z,14.20
2022-07-27T01:14:50.839Z,14.10
2022-07-27T01:18:35.479Z,14.10
2022-07-27T01:22:17.928Z,14.00
2022-07-27T01:26:03.983Z,13.90
2022-07-27T01:29:45.872Z,13.90
2022-07-27T01:33:27.717Z,13.90
2022-07-27T01:37:09.772Z,13.80
2022-07-27T01:40:52.555Z,13.80
2022-07-27T01:44:34.499Z,13.70
2022-07-27T01:48:16.344Z,13.70
2022-07-27T01:51:58.162Z,13.60
2022-07-27T01:55:40.141Z,13.50
2022-07-27T01:59:22.024Z,13.40
2022-07-27T02:03:05.419Z,13.30
2022-07-27T02:06:47.342Z,13.20
2022-07-27T02:10:29.352Z,13.20
2022-07-27T02:14:11.145Z,13.20
2022-07-27T02:17:54.278Z,13.10
2022-07-27T02:21:36.500Z,13.10
2022-07-27T02:25:19.555Z,13.10
2022-07-27T02:29:01.501Z,13.00
2022-07-27T02:32:44.141Z,13.00
2022-07-27T02:36:29.164Z,12.90
2022-07-27T02:40:12.032Z,12.90
2022-07-27T02:43:53.862Z,12.80
2022-07-27T02:47:36.071Z,12.80
2022-07-27T02:51:17.873Z,12.70
2022-07-27T02:54:59.808Z,12.70
2022-07-27T02:58:41.868Z,12.60
2022-07-27T03:02:23.701Z,12.60
2022-07-27T03:06:06.371Z,12.50
2022-07-27T03:09:52.324Z,12.50
2022-07-27T03:13:34.586Z,12.40
2022-07-27T03:17:16.429Z,12.30
2022-07-27T03:20:58.407Z,12.30
2022-07-27T03:24:40.232Z,12.20
2022-07-27T03:28:22.119Z,12.20
2022-07-27T03:32:04.005Z,12.10
2022-07-27T03:35:45.876Z,12.10
2022-07-27T03:39:27.809Z,12.10
2022-07-27T03:43:09.809Z,12.00
2022-07-27T03:46:51.631Z,12.00
2022-07-27T03:50:33.516Z,11.90
2022-07-27T03:54:15.317Z,11.90
2022-07-27T03:57:57.216Z,11.90
2022-07-27T04:01:39.133Z,11.80
2022-07-27T04:05:21.072Z,11.80
2022-07-27T04:09:08.790Z,11.70
2022-07-27T04:12:50.959Z,11.70
2022-07-27T04:16:36.098Z,11.70
2022-07-27T04:20:18.245Z,11.60
2022-07-27T04:24:00.317Z,11.60
2022-07-27T04:27:42.180Z,11.60
2022-07-27T04:31:24.319Z,11.60
2022-07-27T04:35:07.667Z,11.50
2022-07-27T04:38:49.751Z,11.50
2022-07-27T04:42:31.625Z,11.40
2022-07-27T04:46:15.562Z,11.40
2022-07-27T04:49:57.660Z,11.40
2022-07-27T04:53:53.921Z,11.40
2022-07-27T04:57:42.052Z,11.40
2022-07-27T05:01:25.508Z,11.30
2022-07-27T05:05:08.920Z,11.30
2022-07-27T05:08:50.880Z,11.30
2022-07-27T05:12:32.687Z,11.20
2022-07-27T05:16:14.521Z,11.20
2022-07-27T05:19:56.444Z,11.20
2022-07-27T05:23:38.371Z,11.10
2022-07-27T05:27:20.293Z,11.20
2022-07-27T05:31:02.603Z,11.20
2022-07-27T05:34:46.103Z,11.20
2022-07-27T05:38:28.077Z,11.30
2022-07-27T05:42:11.400Z,11.30
2022-07-27T05:45:57.338Z,11.30
2022-07-27T05:49:39.277Z,11.30
2022-07-27T05:53:21.149Z,11.40
2022-07-27T05:57:04.017Z,11.40
2022-07-27T06:00:45.978Z,11.40
2022-07-27T06:04:27.911Z,11.40
2022-07-27T06:08:10.042Z,11.50
2022-07-27T06:11:51.831Z,11.60
2022-07-27T06:15:34.190Z,11.60
2022-07-27T06:19:16.200Z,11.70
2022-07-27T06:23:00.423Z,11.90
2022-07-27T06:26:42.396Z,12.10
2022-07-27T06:30:24.257Z,12.30
2022-07-27T06:34:08.185Z,12.60
2022-07-27T06:37:53.811Z,12.80
2022-07-27T06:41:35.735Z,13.10
2022-07-27T06:45:17.586Z,13.60
2022-07-27T06:48:59.474Z,14.20
2022-07-27T06:52:41.351Z,14.70
2022-07-27T06:56:23.472Z,15.40
2022-07-27T07:00:06.938Z,15.90
2022-07-27T07:03:48.972Z,16.30
2022-07-27T07:07:31.749Z,16.70
2022-07-27T07:11:14.111Z,17.10
2022-07-27T07:14:56.052Z,17.60
2022-07-27T07:18:37.854Z,17.90
2022-07-27T07:22:19.738Z,18.20
2022-07-27T07:26:01.568Z,18.40
2022-07-27T07:29:43.364Z,18.50
2022-07-27T07:33:25.307Z,18.80
2022-07-27T07:37:07.435Z,19.10
2022-07-27T07:40:49.253Z,19.30
2022-07-27T07:44:31.401Z,19.50
2022-07-27T07:48:13.271Z,19.80
2022-07-27T07:51:55.173Z,20.20
2022-07-27T07:55:37.181Z,20.40
2022-07-27T07:59:19.108Z,20.40
2022-07-27T08:03:01.095Z,20.20
2022-07-27T08:06:42.964Z,20.10
2022-07-27T08:10:25.165Z,20.00
2022-07-27T08:14:07.021Z,20.00
2022-07-27T08:17:48.975Z,20.00
2022-07-27T08:21:34.767Z,19.90
2022-07-27T08:25:17.592Z,19.90
2022-07-27T08:29:13.416Z,19.80
2022-07-27T08:32:58.341Z,19.80
2022-07-27T08:36:40.306Z,19.70
2022-07-27T08:40:42.021Z,19.70
2022-07-27T08:44:27.697Z,19.70
2022-07-27T08:48:14.161Z,19.70
2022-07-27T08:51:56.360Z,19.90
2022-07-27T08:55:40.635Z,20.10
2022-07-27T08:59:22.573Z,20.40
2022-07-27T09:03:04.508Z,20.60
2022-07-27T09:06:53.227Z,20.70
2022-07-27T09:10:38.430Z,20.90
2022-07-27T09:14:31.073Z,21.20
2022-07-27T09:18:25.977Z,21.50
2022-07-27T09:22:08.558Z,21.80
2022-07-27T09:26:03.682Z,22.00
2022-07-27T09:29:47.796Z,22.20
2022-07-27T09:33:30.972Z,22.40
2022-07-27T09:37:27.920Z,22.40
2022-07-27T09:41:09.820Z,22.50
2022-07-27T09:44:56.593Z,22.40
2022-07-27T09:48:39.166Z,22.40
2022-07-27T09:52:29.828Z,22.50
2022-07-27T09:56:16.006Z,22.70
2022-07-27T10:00:15.619Z,23.10
2022-07-27T10:04:00.492Z,23.90
2022-07-27T10:07:42.477Z,24.60
2022-07-27T10:11:24.850Z,24.90
2022-07-27T10:15:07.532Z,25.10
2022-07-27T10:19:15.969Z,25.10
2022-07-27T10:22:58.951Z,25.00
2022-07-27T10:26:43.045Z,24.80
2022-07-27T10:30:28.224Z,24.60
2022-07-27T10:34:12.901Z,24.40
2022-07-27T10:38:13.165Z,24.10
2022-07-27T10:42:17.531Z,23.90
2022-07-27T10:46:02.757Z,23.80
2022-07-27T10:49:44.828Z,23.70
2022-07-27T10:53:55.064Z,23.50
2022-07-27T10:57:37.674Z,23.20
2022-07-27T11:01:21.512Z,22.90
2022-07-27T11:05:05.238Z,22.80
2022-07-27T11:09:01.768Z,22.90
2022-07-27T11:12:53.655Z,23.00
2022-07-27T11:16:55.024Z,23.20
2022-07-27T11:20:38.105Z,23.50
2022-07-27T11:24:20.015Z,23.80
2022-07-27T11:28:07.319Z,24.30
2022-07-27T11:31:59.205Z,25.10
2022-07-27T11:35:57.893Z,25.60
2022-07-27T11:40:00.391Z,25.80
2022-07-27T11:43:45.163Z,26.20
2022-07-27T11:47:29.505Z,26.60
2022-07-27T11:51:11.743Z,26.90
2022-07-27T11:54:53.648Z,27.10
2022-07-27T11:59:01.738Z,27.70
2022-07-27T12:02:50.656Z,28.20
2022-07-27T12:06:34.192Z,28.60
2022-07-27T12:10:16.503Z,28.70
2022-07-27T12:13:59.370Z,28.50
2022-07-27T12:17:43.273Z,28.40
2022-07-27T12:21:25.124Z,28.20
2022-07-27T12:25:17.384Z,27.70
2022-07-27T12:29:11.004Z,27.40
2022-07-27T12:32:55.593Z,27.10
2022-07-27T12:36:41.820Z,26.80
2022-07-27T12:40:23.727Z,26.30
2022-07-27T12:44:16.974Z,26.00
2022-07-27T12:48:19.690Z,25.80
2022-07-27T12:52:08.876Z,25.60
2022-07-27T12:55:50.920Z,25.50
2022-07-27T12:59:32.824Z,25.60
2022-07-27T13:03:16.440Z,25.70
2022-07-27T13:06:58.454Z,25.90
2022-07-27T13:10:40.813Z,26.10
2022-07-27T13:14:22.624Z,26.20
2022-07-27T13:18:04.469Z,26.20
2022-07-27T13:21:46.375Z,26.10
2022-07-27T13:25:28.208Z,26.10
2022-07-27T13:29:10.447Z,26.20
2022-07-27T13:32:52.572Z,26.30
2022-07-27T13:36:34.461Z,26.30
2022-07-27T13:40:16.336Z,26.20
2022-07-27T13:43:58.167Z,26.10
2022-07-27T13:47:41.051Z,25.90
2022-07-27T13:51:23.081Z,25.80
2022-07-27T13:55:08.138Z,25.60
2022-07-27T13:58:50.062Z,25.30
2022-07-27T14:02:31.961Z,25.20
2022-07-27T14:06:13.887Z,25.10
2022-07-27T14:10:15.579Z,24.80
2022-07-27T14:13:57.848Z,24.70
2022-07-27T14:17:39.704Z,24.50
2022-07-27T14:21:21.588Z,24.30
2022-07-27T14:25:03.784Z,24.20
2022-07-27T14:28:45.679Z,24.20
2022-07-27T14:32:27.651Z,24.30
2022-07-27T14:36:10.054Z,24.30
2022-07-27T14:39:52.007Z,24.40
2022-07-27T14:43:33.956Z,24.50
2022-07-27T14:47:15.811Z,24.70
2022-07-27T14:50:57.627Z,24.80
2022-07-27T14:54:42.484Z,24.90
2022-07-27T14:58:24.378Z,24.90
2022-07-27T15:02:06.425Z,24.90
2022-07-27T15:05:50.621Z,24.90
2022-07-27T15:09:32.843Z,25.00
2022-07-27T15:13:14.959Z,24.90
2022-07-27T15:16:56.850Z,24.80
2022-07-27T15:20:38.681Z,24.90
2022-07-27T15:24:20.561Z,25.10
2022-07-27T15:28:02.392Z,25.10
2022-07-27T15:31:44.900Z,25.00
2022-07-27T15:35:26.776Z,24.90
2022-07-27T15:39:08.785Z,24.80
2022-07-27T15:42:50.734Z,24.70
2022-07-27T15:46:33.769Z,24.70
2022-07-27T15:50:15.701Z,24.50
2022-07-27T15:53:57.621Z,24.40
2022-07-27T15:57:39.431Z,24.10
2022-07-27T16:01:21.880Z,23.90
2022-07-27T16:05:04.917Z,23.80
2022-07-27T16:08:47.951Z,23.70
2022-07-27T16:12:31.873Z,23.60
2022-07-27T16:16:21.850Z,23.50
2022-07-27T16:20:04.892Z,23.30
2022-07-27T16:23:47.572Z,23.10
2022-07-27T16:27:29.593Z,23.00
2022-07-27T16:31:14.068Z,22.90
2022-07-27T16:34:55.949Z,22.90
2022-07-27T16:38:49.158Z,23.00
2022-07-27T16:42:35.007Z,22.90
2022-07-27T16:46:19.938Z,22.90
2022-07-27T16:50:02.028Z,22.90
2022-07-27T16:53:46.121Z,22.90
2022-07-27T16:57:28.290Z,22.90
2022-07-27T17:01:21.746Z,22.90
2022-07-27T17:05:05.725Z,22.90
2022-07-27T17:08:47.779Z,22.90
2022-07-27T17:12:29.628Z,22.90
2022-07-27T17:16:14.101Z,22.90
2022-07-27T17:19:56.060Z,23.10
2022-07-27T17:23:38.336Z,23.10
2022-07-27T17:27:22.036Z,23.10
2022-07-27T17:31:05.131Z,23.10
2022-07-27T17:34:47.233Z,23.10
2022-07-27T17:38:29.226Z,23.00
2022-07-27T17:42:11.146Z,22.80
2022-07-27T17:45:53.130Z,22.70
2022-07-27T17:49:35.158Z,22.50
2022-07-27T17:53:17.633Z,22.40
2022-07-27T17:56:59.555Z,22.40
2022-07-27T18:00:41.650Z,22.40
2022-07-27T18:04:23.536Z,22.40
2022-07-27T18:08:06.010Z,22.40
2022-07-27T18:11:47.856Z,22.30
2022-07-27T18:15:49.070Z,22.20
2022-07-27T18:19:31.197Z,22.20
2022-07-27T18:23:13.048Z,22.10
2022-07-27T18:26:59.385Z,22.10
2022-07-27T18:30:41.164Z,22.10
2022-07-27T18:34:22.994Z,22.10
2022-07-27T18:38:08.107Z,22.10
2022-07-27T18:41:49.945Z,22.10
2022-07-27T18:45:34.344Z,22.10
2022-07-27T18:49:17.127Z,22.00
2022-07-27T18:52:59.365Z,22.00
2022-07-27T18:56:41.452Z,22.00
2022-07-27T19:00:24.608Z,21.90
2022-07-27T19:04:06.656Z,21.80
2022-07-27T19:07:49.995Z,21.80
2022-07-27T19:11:32.139Z,21.70
2022-07-27T19:15:14.297Z,21.60
2022-07-27T19:18:56.532Z,21.50
2022-07-27T19:22:41.757Z,21.50
2022-07-27T19:26:23.636Z,21.40
2022-07-27T19:30:06.065Z,21.30
2022-07-27T19:33:47.858Z,21.20
2022-07-27T19:37:31.369Z,21.20
2022-07-27T19:41:13.257Z,21.10
2022-07-27T19:44:58.314Z,21.00
2022-07-27T19:48:40.248Z,21.00
2022-07-27T19:52:22.168Z,20.90
2022-07-27T19:56:04.449Z,20.90
2022-07-27T19:59:55.788Z,20.90
2022-07-27T20:03:53.921Z,20.80
2022-07-27T20:07:37.372Z,20.70
2022-07-27T20:11:19.332Z,20.60
2022-07-27T20:15:01.193Z,20.50
2022-07-27T20:18:43.073Z,20.40
2022-07-27T20:22:24.883Z,20.30
2022-07-27T20:26:07.874Z,20.20
2022-07-27T20:29:50.291Z,20.10
2022-07-27T20:33:32.965Z,20.10
2022-07-27T20:37:14.848Z,20.00
2022-07-27T20:40:56.733Z,20.00
2022-07-27T20:44:38.783Z,19.90
2022-07-27T20:48:20.983Z,19.80
2022-07-27T20:52:02.839Z,19.80
2022-07-27T20:55:45.887Z,19.70
2022-07-27T20:59:28.379Z,19.70
2022-07-27T21:03:10.242Z,19.60
2022-07-27T21:06:54.167Z,19.60
2022-07-27T21:10:36.030Z,19.60
2022-07-27T21:14:17.904Z,19.50
2022-07-27T21:17:59.789Z,19.50
2022-07-27T21:21:41.584Z,19.40
2022-07-27T21:25:23.413Z,19.30
2022-07-27T21:29:06.991Z,19.20
2022-07-27T21:32:50.617Z,19.20
2022-07-27T21:36:32.787Z,19.10
2022-07-27T21:40:14.784Z,19.00
2022-07-27T21:43:57.015Z,19.00
2022-07-27T21:47:38.856Z,19.00
2022-07-27T21:51:21.529Z,19.00
2022-07-27T21:55:03.486Z,19.00
2022-07-27T21:58:46.012Z,19.00
2022-07-27T22:02:28.347Z,18.90
2022-07-27T22:06:10.455Z,18.90
2022-07-27T22:09:52.412Z,18.90
2022-07-27T22:13:34.771Z,18.70
2022-07-27T22:17:16.640Z,18.70
2022-07-27T22:20:58.807Z,18.60
2022-07-27T22:24:41.013Z,18.60
2022-07-27T22:28:25.505Z,18.60
2022-07-27T22:32:08.366Z,18.60
2022-07-27T22:35:50.247Z,18.50
2022-07-27T22:39:32.072Z,18.40
2022-07-27T22:43:13.942Z,18.40
2022-07-27T22:46:55.803Z,18.30
2022-07-27T22:50:37.672Z,18.30
2022-07-27T22:54:20.372Z,18.20
2022-07-27T22:58:02.838Z,18.20
2022-07-27T23:01:47.561Z,18.20
2022-07-27T23:05:29.914Z,18.10
2022-07-27T23:09:11.906Z,18.10
2022-07-27T23:12:53.728Z,18.10
2022-07-27T23:16:35.670Z,18.00
2022-07-27T23:20:17.608Z,18.00
2022-07-27T23:23:59.478Z,17.90
2022-07-27T23:27:42.927Z,17.80
2022-07-27T23:31:26.036Z,17.80
2022-07-27T23:35:08.363Z,17.70
2022-07-27T23:38:50.224Z,17.60
2022-07-27T23:42:32.041Z,17.60
2022-07-27T23:46:13.922Z,17.60
2022-07-27T23:49:55.936Z,17.50
2022-07-27T23:53:37.835Z,17.50
2022-07-27T23:57:19.715Z,17.40
